Date,TemperatureHighF,TemperatureAvgF,TemperatureLowF,DewpointHighF,DewpointAvgF,DewpointLowF,HumidityHigh,HumidityAvg,HumidityLow,PressureMaxIn,PressureMinIn,WindSpeedMaxMPH,WindSpeedAvgMPH,GustSpeedMaxMPH,PrecipitationSumIn
2013-7-1,69.2,65.7,62.3,64.9,62.1,59.1,94,88,82,29.94,29.83,15,5,16,0.01
2013-7-2,77.2,66.1,60.0,70.2,63.9,59.1,98,93,78,29.99,29.92,12,2,12,1.18
2013-7-3,80.0,70.5,61.4,69.0,65.6,61.1,99,86,65,30.07,29.98,16,3,16,0.01
2013-7-4,78.6,69.2,62.0,70.1,66.4,61.7,99,91,72,30.11,30.03,7,0,7,0.03
2013-7-5,81.0,71.9,64.7,70.9,67.8,64.3,99,88,69,30.11,30.02,11,1,11,0.00
2013-7-6,74.4,69.8,66.1,69.9,68.1,64.5,99,94,83,30.08,29.99,11,1,11,0.02
2013-7-7,82.0,72.1,64.6,72.6,68.2,64.0,99,88,65,30.07,29.98,11,3,11,0.00
2013-7-8,84.7,77.7,69.7,76.0,71.5,67.6,94,82,71,30.06,29.96,14,4,14,0.00
2013-7-9,87.8,80.2,73.9,78.5,74.1,71.1,92,82,70,30.00,29.90,15,4,16,0.00
2013-7-10,86.0,78.0,68.5,79.2,73.2,64.0,96,85,70,29.92,29.77,35,4,35,0.06
2013-7-11,76.8,69.3,58.9,64.0,60.9,56.8,96,76,57,30.02,29.92,15,3,15,0.00
2013-7-12,77.6,67.6,55.0,64.9,60.2,54.4,99,79,56,30.10,30.01,15,2,15,0.00
2013-7-13,82.7,71.0,58.4,70.2,64.2,57.3,98,81,60,30.12,30.06,11,2,13,0.00
2013-7-14,89.4,77.0,64.8,79.2,70.3,63.1,96,81,60,30.17,30.11,10,1,10,0.00
2013-7-15,89.3,80.1,71.9,75.3,72.8,70.3,97,80,61,30.25,30.17,12,2,12,0.00
2013-7-16,91.8,80.2,68.3,79.3,73.5,67.9,99,82,56,30.30,30.22,5,0,6,0.00
2013-7-17,90.8,80.4,70.1,77.2,73.7,69.8,100,82,58,30.30,30.15,6,1,6,0.00
2013-7-18,91.8,80.5,69.3,80.2,74.2,69.0,99,83,58,30.17,29.97,7,1,8,0.00
2013-7-19,90.0,81.6,72.5,78.3,74.3,71.1,97,80,59,29.99,29.80,16,4,16,0.00
2013-7-20,79.7,74.5,68.0,74.1,71.2,67.4,98,89,82,29.88,29.77,13,3,13,0.15
2013-7-21,84.7,74.4,64.8,74.8,70.2,64.2,99,88,67,29.94,29.84,6,1,6,0.00
2013-7-22,73.5,70.9,67.7,70.9,69.3,67.1,98,95,87,29.87,29.80,8,1,11,0.17
2013-7-23,84.4,74.6,62.8,73.8,68.8,58.5,99,83,64,29.84,29.71,17,9,17,0.00
2013-7-24,71.6,62.4,53.5,59.6,55.9,51.5,95,80,62,30.00,29.84,14,7,14,0.00
2013-7-25,75.5,63.2,49.3,60.6,55.4,48.8,98,78,51,30.09,30.01,10,3,10,0.00
2013-7-26,78.4,67.2,53.1,63.4,58.8,52.3,98,77,55,30.08,29.92,13,5,13,0.00
2013-7-27,74.9,68.2,57.3,66.3,60.7,52.2,98,78,56,29.92,29.80,20,11,20,0.01
2013-7-28,70.6,62.1,49.8,54.6,52.9,47.6,93,73,53,30.02,29.90,23,4,23,0.00
2013-7-29,76.5,64.5,51.8,60.8,56.1,50.4,97,76,53,30.16,30.02,13,2,13,0.00
2013-7-30,77.5,66.8,54.7,65.9,60.8,53.6,97,82,59,30.19,30.08,7,1,7,0.00
2013-7-31,73.8,67.8,64.4,71.1,66.1,62.6,98,95,86,30.08,29.91,7,1,8,0.32